Time;durP1;ratioP1;P1;durP2;ratioP2;P2;SDS_P1;SDS_P2;PMS_P1;PMS_P2;Temp;Humidity;BMP_temperature;BMP_pressure;BME280_temperature;BME280_humidity;BME280_pressure;Samples;Min_cycle;Max_cycle;Signal;HPM_P1;HPM_P2
2024/01/12 00:04:16;;;;;;;7.60;5.60;;;;;;;-3.29;100.00;100259.76;433472;1256;126729;-65
2024/01/12 00:14:22;;;;;;;10.60;7.10;;;;;;;-3.44;100.00;100265.52;433325;1261;142030;-64
2024/01/12 00:24:27;;;;;;;8.20;6.00;;;;;;;-3.66;100.00;100274.31;432816;1257;141920;-64
2024/01/12 00:34:33;;;;;;;10.30;6.10;;;;;;;-3.92;100.00;100274.34;432667;1260;140049;-64
2024/01/12 00:44:39;;;;;;;7.40;5.90;;;;;;;-4.16;100.00;100283.58;433137;1259;140925;-65
2024/01/12 00:54:45;;;;;;;7.60;6.10;;;;;;;-4.38;100.00;100285.11;433062;1256;140559;-64
2024/01/12 01:04:49;;;;;;;;;;;;;;;-4.58;100.00;100290.59;432879;1259;140841;-63
2024/01/12 01:14:55;;;;;;;9.00;5.20;;;;;;;-4.78;100.00;100302.70;432924;1260;127320;-63
2024/01/12 01:25:01;;;;;;;10.40;5.50;;;;;;;-4.93;100.00;100294.33;432962;1256;141045;-64
2024/01/12 01:35:07;;;;;;;8.30;5.20;;;;;;;-5.12;100.00;100299.42;432970;1261;141043;-63
2024/01/12 01:45:13;;;;;;;9.00;5.70;;;;;;;-5.31;100.00;100293.23;438563;1259;140570;-65
2024/01/12 01:55:20;;;;;;;12.00;6.60;;;;;;;-5.44;100.00;100309.11;433493;1256;140520;-64
2024/01/12 02:05:26;;;;;;;11.80;6.20;;;;;;;-5.58;100.00;100316.08;432837;1259;141584;-64
2024/01/12 02:15:32;;;;;;;10.40;4.70;;;;;;;-5.75;100.00;100333.08;432967;1259;141917;-63
2024/01/12 02:25:38;;;;;;;8.00;5.60;;;;;;;-5.88;100.00;100347.38;432649;1261;507809;-63
2024/01/12 02:35:44;;;;;;;9.10;4.70;;;;;;;-6.01;100.00;100347.54;432794;1260;140187;-65
2024/01/12 02:45:50;;;;;;;6.90;5.20;;;;;;;-6.13;100.00;100338.33;433334;1256;140651;-63
2024/01/12 02:55:55;;;;;;;5.90;4.40;;;;;;;-6.27;100.00;100336.91;433247;1260;142953;-63
2024/01/12 03:06:02;;;;;;;5.40;4.90;;;;;;;-6.40;100.00;100354.76;432803;1261;140234;-63
2024/01/12 03:16:17;;;;;;;6.30;4.10;;;;;;;-6.54;100.00;100355.71;434257;1260;141133;-64
2024/01/12 03:26:23;;;;;;;9.40;4.00;;;;;;;-6.67;100.00;100353.25;433799;1260;140447;-64
2024/01/12 03:36:29;;;;;;;8.60;3.80;;;;;;;-6.80;100.00;100350.27;432879;1259;140317;-64
2024/01/12 03:46:36;;;;;;;6.80;4.20;;;;;;;-6.97;100.00;100356.58;433051;1256;140118;-64
2024/01/12 03:56:42;;;;;;;7.10;4.40;;;;;;;-7.11;100.00;100362.79;433068;1261;140001;-63
2024/01/12 04:06:48;;;;;;;4.70;3.70;;;;;;;-7.30;100.00;100371.23;432863;1261;140259;-63
2024/01/12 04:16:54;;;;;;;5.60;4.70;;;;;;;-7.52;100.00;100371.11;432891;1259;141445;-62
2024/01/12 04:27:00;;;;;;;5.40;4.20;;;;;;;-7.73;100.00;100374.54;433061;1260;140065;-63
2024/01/12 04:37:06;;;;;;;8.40;5.30;;;;;;;-7.88;100.00;100379.96;433732;1260;140930;-64
2024/01/12 04:47:12;;;;;;;9.00;4.90;;;;;;;-8.00;100.00;100387.83;432849;1260;141349;-63
2024/01/12 04:57:18;;;;;;;7.10;5.30;;;;;;;-8.04;100.00;100382.14;435054;1260;140657;-64
2024/01/12 05:07:23;;;;;;;7.90;5.50;;;;;;;-8.05;100.00;100404.02;432864;1261;143153;-63
2024/01/12 05:17:29;;;;;;;8.60;6.60;;;;;;;-8.08;100.00;100405.31;432786;1261;140675;-63
2024/01/12 05:27:35;;;;;;;7.40;4.70;;;;;;;-8.02;100.00;100415.33;432925;1262;141497;-63
2024/01/12 05:37:40;;;;;;;10.10;5.80;;;;;;;-7.94;100.00;100419.59;432877;1260;141413;-64
2024/01/12 05:47:46;;;;;;;6.60;5.20;;;;;;;-7.86;100.00;100420.47;432769;1260;140441;-64
2024/01/12 05:57:52;;;;;;;10.30;7.60;;;;;;;-7.75;100.00;100428.56;434102;1257;140734;-64
2024/01/12 06:07:57;;;;;;;7.70;6.80;;;;;;;-7.64;100.00;100439.54;432914;1258;143241;-65
2024/01/12 06:18:03;;;;;;;11.60;8.00;;;;;;;-7.55;100.00;100442.11;432791;1259;142125;-64
2024/01/12 06:28:10;;;;;;;13.50;10.20;;;;;;;-7.50;100.00;100452.10;432844;1260;140487;-64
2024/01/12 06:38:16;;;;;;;10.90;7.90;;;;;;;-7.48;100.00;100450.44;433406;1261;141889;-64
2024/01/12 06:48:22;;;;;;;9.70;7.40;;;;;;;-7.49;100.00;100449.22;433362;1260;142091;-63
2024/01/12 06:58:28;;;;;;;16.20;12.20;;;;;;;-7.47;100.00;100439.08;432956;1260;141722;-64
2024/01/12 07:08:33;;;;;;;13.90;9.50;;;;;;;-7.41;100.00;100426.80;433582;1260;140289;-64
2024/01/12 07:18:39;;;;;;;22.10;13.40;;;;;;;-7.24;100.00;100419.70;432847;1260;141384;-64
2024/01/12 07:28:45;;;;;;;19.70;14.20;;;;;;;-7.13;100.00;100424.19;433000;1260;141157;-65
2024/01/12 07:38:51;;;;;;;23.50;18.00;;;;;;;-6.97;100.00;100423.48;433268;1260;141564;-63
2024/01/12 07:48:57;;;;;;;20.70;16.70;;;;;;;-6.64;100.00;100418.70;432812;1260;140791;-60
2024/01/12 07:59:03;;;;;;;18.30;13.60;;;;;;;-6.30;100.00;100430.23;432797;1260;141085;-63
2024/01/12 08:09:10;;;;;;;32.20;21.70;;;;;;;-5.93;100.00;100431.88;432832;1257;141848;-61
2024/01/12 08:19:15;;;;;;;24.40;17.40;;;;;;;-5.64;100.00;100429.61;433041;1258;141059;-63
2024/01/12 08:29:21;;;;;;;23.20;16.20;;;;;;;-5.32;100.00;100435.73;433284;1256;140721;-65
2024/01/12 08:39:29;;;;;;;23.20;16.10;;;;;;;-4.73;100.00;100432.24;433464;1260;140970;-69
2024/01/12 08:49:35;;;;;;;25.60;14.90;;;;;;;-4.22;100.00;100428.52;434322;1257;142191;-72
2024/01/12 08:59:40;;;;;;;21.80;15.30;;;;;;;-3.58;100.00;100427.19;434907;1260;141067;-67
2024/01/12 09:09:46;;;;;;;19.10;13.40;;;;;;;-2.78;100.00;100409.14;433037;1257;141978;-67
2024/01/12 09:19:52;;;;;;;17.40;13.20;;;;;;;-2.02;100.00;100403.16;432811;1258;140358;-63
2024/01/12 09:29:58;;;;;;;17.50;13.10;;;;;;;-1.78;100.00;100406.44;431948;1259;141191;-63
2024/01/12 09:40:04;;;;;;;15.40;12.20;;;;;;;-1.35;100.00;100407.93;432620;1260;141303;-63
2024/01/12 09:50:11;;;;;;;14.60;9.40;;;;;;;-1.03;100.00;100412.48;436345;1255;141552;-64
2024/01/12 10:00:20;;;;;;;8.70;7.10;;;;;;;-0.59;100.00;100405.45;433366;1257;143708;-63
2024/01/12 10:10:26;;;;;;;12.20;7.50;;;;;;;-0.36;100.00;100394.30;434721;1255;141253;-62
2024/01/12 10:20:38;;;;;;;10.10;6.60;;;;;;;-0.10;100.00;100380.71;432806;1258;140761;-63
2024/01/12 10:30:46;;;;;;;8.70;6.20;;;;;;;0.12;100.00;100375.73;433872;1255;141609;-63
2024/01/12 10:40:53;;;;;;;9.20;6.30;;;;;;;0.42;100.00;100359.45;434482;1255;140204;-63
2024/01/12 10:51:03;;;;;;;6.90;5.60;;;;;;;-0.01;100.00;100324.87;432837;1257;139912;-63
2024/01/12 11:01:09;;;;;;;5.90;4.70;;;;;;;-0.46;100.00;100317.47;434505;1260;139696;-62
2024/01/12 11:11:18;;;;;;;8.90;5.60;;;;;;;-0.40;100.00;100308.66;435497;1257;140891;-62
2024/01/12 11:21:27;;;;;;;6.80;4.40;;;;;;;-0.46;100.00;100304.92;432762;1258;141105;-63
2024/01/12 11:31:33;;;;;;;11.30;7.50;;;;;;;-1.04;100.00;100288.94;432960;1256;140345;-63
2024/01/12 11:41:44;;;;;;;18.00;11.00;;;;;;;-1.21;100.00;100254.48;432775;1257;141420;-63
2024/01/12 11:51:49;;;;;;;18.60;12.50;;;;;;;-1.30;100.00;100225.14;432767;1256;141645;-63
2024/01/12 12:01:55;;;;;;;20.40;15.10;;;;;;;-1.21;100.00;100209.63;434064;1255;140113;-62
2024/01/12 12:12:01;;;;;;;24.20;14.90;;;;;;;-1.22;100.00;100198.83;432905;1260;141607;-62
2024/01/12 12:22:07;;;;;;;27.20;15.20;;;;;;;-1.45;100.00;100188.11;432949;1256;140682;-63
2024/01/12 12:32:14;;;;;;;25.20;16.00;;;;;;;-1.49;100.00;100191.40;432876;1259;140832;-63
2024/01/12 12:42:21;;;;;;;30.30;20.10;;;;;;;-1.59;100.00;100191.44;433009;1258;141183;-62
2024/01/12 12:52:27;;;;;;;21.80;15.20;;;;;;;-1.74;100.00;100181.03;432821;1260;140365;-62
2024/01/12 13:02:33;;;;;;;28.60;15.30;;;;;;;-1.74;100.00;100169.36;434516;1260;141404;-64
2024/01/12 13:12:38;;;;;;;;;;;;;;;-1.93;100.00;100165.14;433109;1259;141624;-63
2024/01/12 13:22:44;;;;;;;17.90;11.00;;;;;;;-2.22;100.00;100144.46;433010;1258;126121;-62
2024/01/12 13:32:50;;;;;;;25.20;14.70;;;;;;;-2.37;100.00;100126.99;435311;1256;140224;-65
2024/01/12 13:42:56;;;;;;;28.30;17.90;;;;;;;-2.46;100.00;100107.13;433417;1260;141616;-64
2024/01/12 13:53:03;;;;;;;27.10;16.30;;;;;;;-2.57;100.00;100082.81;434465;1256;140707;-81
2024/01/12 14:03:11;;;;;;;28.50;16.70;;;;;;;-2.67;100.00;100055.08;439016;1255;140588;-74
2024/01/12 14:13:17;;;;;;;30.80;16.60;;;;;;;-2.70;100.00;100050.11;433906;1257;140941;-67
2024/01/12 14:23:21;;;;;;;;;;;;;;;-2.75;100.00;100026.30;436333;1255;338480;-67
2024/01/12 14:33:29;;;;;;;26.30;16.90;;;;;;;-2.78;100.00;100006.77;433626;1258;127161;-73
2024/01/12 14:43:35;;;;;;;22.20;15.90;;;;;;;-2.76;100.00;99988.60;436062;1258;141003;-69
2024/01/12 14:53:41;;;;;;;22.50;15.80;;;;;;;-2.73;100.00;99993.20;432702;1260;140810;-69
2024/01/12 15:03:48;;;;;;;21.70;15.80;;;;;;;-2.73;100.00;99993.05;433463;1259;141494;-72
2024/01/12 15:13:58;;;;;;;22.90;16.50;;;;;;;-2.74;100.00;100000.76;433331;1260;140832;-67
2024/01/12 15:24:02;;;;;;;;;;;;;;;-2.73;100.00;99996.80;432749;1260;140828;-67
2024/01/12 15:34:09;;;;;;;25.80;17.00;;;;;;;-2.71;100.00;99993.72;433523;1258;126600;-67
2024/01/12 15:44:13;;;;;;;;;;;;;;;-2.73;100.00;99990.12;432961;1256;140301;-67
2024/01/12 15:54:19;;;;;;;30.60;19.40;;;;;;;-2.78;100.00;99974.73;432935;1256;128418;-67
2024/01/12 16:04:25;;;;;;;27.80;16.50;;;;;;;-2.81;100.00;99952.45;432830;1260;141222;-67
2024/01/12 16:14:40;;;;;;;30.90;18.10;;;;;;;-2.85;100.00;99938.58;433006;1258;140675;-67
2024/01/12 16:24:49;;;;;;;26.90;20.20;;;;;;;-2.87;100.00;99930.20;434212;1257;140487;-66
2024/01/12 16:34:54;;;;;;;23.90;17.00;;;;;;;-2.85;100.00;99921.96;433197;1256;141017;-67
2024/01/12 16:45:00;;;;;;;22.00;15.90;;;;;;;-2.81;100.00;99922.47;433231;1260;140861;-66
2024/01/12 16:55:08;;;;;;;26.00;18.20;;;;;;;-2.78;100.00;99917.65;433176;1256;142059;-67
2024/01/12 17:05:14;;;;;;;25.20;17.60;;;;;;;-2.78;100.00;99912.17;433920;1257;140976;-67
2024/01/12 17:15:20;;;;;;;26.00;18.20;;;;;;;-2.75;100.00;99894.34;432947;1259;140316;-66
2024/01/12 17:25:26;;;;;;;24.60;17.30;;;;;;;-2.72;100.00;99893.30;433308;1259;140272;-67
2024/01/12 17:35:31;;;;;;;27.20;17.30;;;;;;;-2.70;100.00;99883.52;433132;1256;140404;-67
2024/01/12 17:45:37;;;;;;;27.80;18.70;;;;;;;-2.69;100.00;99891.56;433289;1259;141110;-59
2024/01/12 17:55:43;;;;;;;22.20;17.10;;;;;;;-2.70;100.00;99874.95;432876;1260;140455;-65
2024/01/12 18:05:48;;;;;;;21.50;16.40;;;;;;;-2.72;100.00;99849.25;432816;1260;140892;-74
2024/01/12 18:15:53;;;;;;;;;;;;;;;-2.75;100.00;99832.65;438170;1256;140799;-71
2024/01/12 18:25:59;;;;;;;20.50;17.20;;;;;;;-2.78;100.00;99810.21;438516;1258;126204;-76
2024/01/12 18:36:05;;;;;;;24.00;17.00;;;;;;;-2.81;100.00;99810.57;438065;1256;140516;-76
2024/01/12 18:46:11;;;;;;;23.70;16.40;;;;;;;-2.80;100.00;99835.76;435244;1260;140607;-63
2024/01/12 18:56:17;;;;;;;23.30;17.00;;;;;;;-2.79;100.00;99811.92;433858;1256;142190;-65
2024/01/12 19:06:23;;;;;;;20.90;16.40;;;;;;;-2.81;100.00;99793.61;432726;1261;140977;-65
2024/01/12 19:16:28;;;;;;;24.40;17.30;;;;;;;-2.84;100.00;99818.81;432962;1259;141636;-65
2024/01/12 19:26:34;;;;;;;26.00;18.30;;;;;;;-2.87;100.00;99798.43;432935;1256;141015;-65
2024/01/12 19:36:43;;;;;;;23.20;14.90;;;;;;;-2.92;100.00;99783.90;433249;1256;142221;-66
2024/01/12 19:46:48;;;;;;;28.00;20.50;;;;;;;-2.96;100.00;99775.19;433449;1256;140927;-67
2024/01/12 19:56:54;;;;;;;24.00;14.80;;;;;;;-2.98;100.00;99774.69;433680;1260;140544;-66
2024/01/12 20:07:00;;;;;;;29.70;22.10;;;;;;;-2.98;100.00;99772.98;433283;1256;140735;-65
2024/01/12 20:17:06;;;;;;;31.30;21.80;;;;;;;-2.97;100.00;99775.36;432810;1256;141214;-68
2024/01/12 20:27:10;;;;;;;;;;;;;;;-2.93;100.00;99777.75;433022;1260;140589;-67
2024/01/12 20:37:16;;;;;;;31.10;21.60;;;;;;;-2.92;100.00;99778.25;433056;1260;127269;-64
2024/01/12 20:47:24;;;;;;;28.80;19.60;;;;;;;-2.93;100.00;99763.36;432534;1260;141552;-66
2024/01/12 20:57:30;;;;;;;19.90;13.80;;;;;;;-2.91;100.00;99762.65;434861;1256;142248;-65
2024/01/12 21:07:36;;;;;;;18.60;13.90;;;;;;;-2.91;100.00;99760.94;433195;1256;140432;-68
2024/01/12 21:17:42;;;;;;;20.40;14.10;;;;;;;-2.91;100.00;99763.86;435285;1256;140415;-68
2024/01/12 21:27:53;;;;;;;24.90;16.10;;;;;;;-2.91;100.00;99757.51;433136;1256;141407;-62
2024/01/12 21:37:59;;;;;;;22.90;15.80;;;;;;;-2.90;100.00;99751.51;433436;1260;141245;-70
2024/01/12 21:48:05;;;;;;;23.70;14.60;;;;;;;-2.88;100.00;99749.44;433381;1256;140841;-70
2024/01/12 21:58:11;;;;;;;24.50;15.80;;;;;;;-2.86;100.00;99734.19;435683;1256;141085;-68
2024/01/12 22:08:16;;;;;;;22.90;14.10;;;;;;;-2.88;100.00;99733.52;432819;1259;140443;-63
2024/01/12 22:18:22;;;;;;;24.50;14.80;;;;;;;-2.86;100.00;99719.79;432967;1260;141565;-64
2024/01/12 22:28:28;;;;;;;21.60;15.80;;;;;;;-2.83;100.00;99707.95;433160;1260;141456;-62
2024/01/12 22:38:34;;;;;;;17.40;11.90;;;;;;;-2.85;100.00;99706.94;432976;1260;140534;-64
2024/01/12 22:48:40;;;;;;;14.10;11.70;;;;;;;-2.90;100.00;99699.08;432893;1256;142005;-63
2024/01/12 22:58:44;;;;;;;;;;;;;;;-2.92;100.00;99691.58;433007;1261;141132;-64
2024/01/12 23:08:50;;;;;;;13.30;9.90;;;;;;;-2.91;100.00;99705.59;433388;1256;128506;-62
2024/01/12 23:18:56;;;;;;;13.50;10.50;;;;;;;-2.92;100.00;99695.16;433283;1259;140025;-63
2024/01/12 23:29:00;;;;;;;;;;;;;;;-2.95;100.00;99668.11;432943;1259;140436;-61
2024/01/12 23:39:06;;;;;;;14.60;8.90;;;;;;;-3.00;100.00;99663.86;433070;1260;126057;-63
2024/01/12 23:49:12;;;;;;;10.70;7.50;;;;;;;-3.02;100.00;99661.33;432870;1260;140607;-63
2024/01/12 23:59:18;;;;;;;;;;;;;;;-3.03;100.00;99649.85;433051;1260;140912;-62
